sensor_id;sensor_type;location;lat;lon;timestamp;temperature;humidity
17728;DHT22;8984;49.268;12.302;2024-02-14T00:01:37;4.10;99.90
17728;DHT22;8984;49.268;12.302;2024-02-14T00:04:08;4.10;99.90
17728;DHT22;8984;49.268;12.302;2024-02-14T00:06:55;4.10;99.90
17728;DHT22;8984;49.268;12.302;2024-02-14T00:09:34;4.10;99.90
17728;DHT22;8984;49.268;12.302;2024-02-14T00:12:03;4.10;99.90
17728;DHT22;8984;49.268;12.302;2024-02-14T00:14:32;4.10;99.90
17728;DHT22;8984;49.268;12.302;2024-02-14T00:17:05;4.10;99.90
17728;DHT22;8984;49.268;12.302;2024-02-14T00:19:39;4.10;99.90
17728;DHT22;8984;49.268;12.302;2024-02-14T00:22:28;4.00;99.90
17728;DHT22;8984;49.268;12.302;2024-02-14T00:25:20;4.00;99.90
17728;DHT22;8984;49.268;12.302;2024-02-14T00:27:49;3.90;99.90
17728;DHT22;8984;49.268;12.302;2024-02-14T00:30:18;3.90;99.90
17728;DHT22;8984;49.268;12.302;2024-02-14T00:32:49;4.00;99.90
17728;DHT22;8984;49.268;12.302;2024-02-14T00:35:31;3.90;99.90
17728;DHT22;8984;49.268;12.302;2024-02-14T00:38:06;3.90;99.90
17728;DHT22;8984;49.268;12.302;2024-02-14T00:40:55;3.90;99.90
17728;DHT22;8984;49.268;12.302;2024-02-14T00:43:24;3.90;99.90
17728;DHT22;8984;49.268;12.302;2024-02-14T00:46:07;3.90;99.90
17728;DHT22;8984;49.268;12.302;2024-02-14T00:48:44;4.00;99.90
17728;DHT22;8984;49.268;12.302;2024-02-14T00:51:15;3.90;99.90
17728;DHT22;8984;49.268;12.302;2024-02-14T00:53:57;3.90;99.90
17728;DHT22;8984;49.268;12.302;2024-02-14T00:56:31;3.90;99.90
17728;DHT22;8984;49.268;12.302;2024-02-14T00:59:07;3.90;99.90
17728;DHT22;8984;49.268;12.302;2024-02-14T01:01:48;3.90;99.90
17728;DHT22;8984;49.268;12.302;2024-02-14T01:04:31;3.90;99.90
17728;DHT22;8984;49.268;12.302;2024-02-14T01:07:17;3.90;99.90
17728;DHT22;8984;49.268;12.302;2024-02-14T01:09:46;3.90;99.90
17728;DHT22;8984;49.268;12.302;2024-02-14T01:12:21;3.80;99.90
17728;DHT22;8984;49.268;12.302;2024-02-14T01:15:04;3.80;99.90
17728;DHT22;8984;49.268;12.302;2024-02-14T01:17:35;3.80;99.90
17728;DHT22;8984;49.268;12.302;2024-02-14T01:20:05;3.90;99.90
17728;DHT22;8984;49.268;12.302;2024-02-14T01:22:34;3.90;99.90
17728;DHT22;8984;49.268;12.302;2024-02-14T01:25:22;3.90;99.90
17728;DHT22;8984;49.268;12.302;2024-02-14T01:28:16;3.90;99.90
17728;DHT22;8984;49.268;12.302;2024-02-14T01:30:49;3.90;99.90
17728;DHT22;8984;49.268;12.302;2024-02-14T01:33:30;3.80;99.90
17728;DHT22;8984;49.268;12.302;2024-02-14T01:36:08;3.70;99.90
17728;DHT22;8984;49.268;12.302;2024-02-14T01:38:49;3.70;99.90
17728;DHT22;8984;49.268;12.302;2024-02-14T01:41:28;3.70;99.90
17728;DHT22;8984;49.268;12.302;2024-02-14T01:44:01;3.80;99.90
17728;DHT22;8984;49.268;12.302;2024-02-14T01:46:28;3.70;99.90
17728;DHT22;8984;49.268;12.302;2024-02-14T01:48:56;3.70;99.90
17728;DHT22;8984;49.268;12.302;2024-02-14T01:51:26;3.70;99.90
17728;DHT22;8984;49.268;12.302;2024-02-14T01:54:06;3.70;99.90
17728;DHT22;8984;49.268;12.302;2024-02-14T01:56:44;3.70;99.90
17728;DHT22;8984;49.268;12.302;2024-02-14T01:59:24;3.70;99.90
17728;DHT22;8984;49.268;12.302;2024-02-14T02:01:56;3.80;99.90
17728;DHT22;8984;49.268;12.302;2024-02-14T02:04:28;3.70;99.90
17728;DHT22;8984;49.268;12.302;2024-02-14T02:06:56;3.70;99.90
17728;DHT22;8984;49.268;12.302;2024-02-14T02:09:28;3.70;99.90
17728;DHT22;8984;49.268;12.302;2024-02-14T02:12:07;3.70;99.90
17728;DHT22;8984;49.268;12.302;2024-02-14T02:14:40;3.70;99.90
17728;DHT22;8984;49.268;12.302;2024-02-14T02:17:08;3.70;99.90
17728;DHT22;8984;49.268;12.302;2024-02-14T02:19:40;3.60;99.90
17728;DHT22;8984;49.268;12.302;2024-02-14T02:22:09;3.70;99.90
17728;DHT22;8984;49.268;12.302;2024-02-14T02:24:41;3.60;99.90
17728;DHT22;8984;49.268;12.302;2024-02-14T02:27:11;3.70;99.90
17728;DHT22;8984;49.268;12.302;2024-02-14T02:29:46;3.70;99.90
17728;DHT22;8984;49.268;12.302;2024-02-14T02:32:14;3.70;99.90
17728;DHT22;8984;49.268;12.302;2024-02-14T02:34:46;3.60;99.90
17728;DHT22;8984;49.268;12.302;2024-02-14T02:37:18;3.60;99.90
17728;DHT22;8984;49.268;12.302;2024-02-14T02:39:48;3.60;99.90
17728;DHT22;8984;49.268;12.302;2024-02-14T02:42:18;3.60;99.90
17728;DHT22;8984;49.268;12.302;2024-02-14T02:44:48;3.60;99.90
17728;DHT22;8984;49.268;12.302;2024-02-14T02:47:29;3.60;99.90
17728;DHT22;8984;49.268;12.302;2024-02-14T02:50:04;3.60;99.90
17728;DHT22;8984;49.268;12.302;2024-02-14T02:52:39;3.50;99.90
17728;DHT22;8984;49.268;12.302;2024-02-14T02:55:24;3.60;99.90
17728;DHT22;8984;49.268;12.302;2024-02-14T02:58:02;3.60;99.90
17728;DHT22;8984;49.268;12.302;2024-02-14T03:00:36;3.60;99.90
17728;DHT22;8984;49.268;12.302;2024-02-14T03:03:08;3.60;99.90
17728;DHT22;8984;49.268;12.302;2024-02-14T03:05:46;3.50;99.90
17728;DHT22;8984;49.268;12.302;2024-02-14T03:08:17;3.50;99.90
17728;DHT22;8984;49.268;12.302;2024-02-14T03:10:54;3.60;99.90
17728;DHT22;8984;49.268;12.302;2024-02-14T03:13:37;3.60;99.90
17728;DHT22;8984;49.268;12.302;2024-02-14T03:16:08;3.60;99.90
17728;DHT22;8984;49.268;12.302;2024-02-14T03:18:43;3.70;99.90
17728;DHT22;8984;49.268;12.302;2024-02-14T03:21:41;3.70;99.90
17728;DHT22;8984;49.268;12.302;2024-02-14T03:24:13;3.70;99.90
17728;DHT22;8984;49.268;12.302;2024-02-14T03:26:50;3.70;99.90
17728;DHT22;8984;49.268;12.302;2024-02-14T03:29:30;3.70;99.90
17728;DHT22;8984;49.268;12.302;2024-02-14T03:34:53;3.70;99.90
17728;DHT22;8984;49.268;12.302;2024-02-14T03:37:20;3.70;99.90
17728;DHT22;8984;49.268;12.302;2024-02-14T03:39:51;3.70;99.90
17728;DHT22;8984;49.268;12.302;2024-02-14T03:42:22;3.70;99.90
17728;DHT22;8984;49.268;12.302;2024-02-14T03:44:52;3.70;99.90
17728;DHT22;8984;49.268;12.302;2024-02-14T03:47:45;3.60;99.90
17728;DHT22;8984;49.268;12.302;2024-02-14T03:50:19;3.60;99.90
17728;DHT22;8984;49.268;12.302;2024-02-14T03:53:01;3.60;99.90
17728;DHT22;8984;49.268;12.302;2024-02-14T03:55:35;3.60;99.90
17728;DHT22;8984;49.268;12.302;2024-02-14T03:58:13;3.60;99.90
17728;DHT22;8984;49.268;12.302;2024-02-14T04:01:03;3.50;99.90
17728;DHT22;8984;49.268;12.302;2024-02-14T04:03:32;3.60;99.90
17728;DHT22;8984;49.268;12.302;2024-02-14T04:06:07;3.50;99.90
17728;DHT22;8984;49.268;12.302;2024-02-14T04:08:36;3.50;99.90
17728;DHT22;8984;49.268;12.302;2024-02-14T04:11:09;3.60;99.90
17728;DHT22;8984;49.268;12.302;2024-02-14T04:13:52;3.60;99.90
17728;DHT22;8984;49.268;12.302;2024-02-14T04:16:25;3.70;99.90
17728;DHT22;8984;49.268;12.302;2024-02-14T04:19:09;3.70;99.90
17728;DHT22;8984;49.268;12.302;2024-02-14T04:21:38;3.70;99.90
17728;DHT22;8984;49.268;12.302;2024-02-14T04:24:07;3.60;99.90
17728;DHT22;8984;49.268;12.302;2024-02-14T04:26:52;3.70;99.90
17728;DHT22;8984;49.268;12.302;2024-02-14T04:29:39;3.70;99.90
17728;DHT22;8984;49.268;12.302;2024-02-14T04:32:21;3.70;99.90
17728;DHT22;8984;49.268;12.302;2024-02-14T04:34:49;3.70;99.90
17728;DHT22;8984;49.268;12.302;2024-02-14T04:37:17;3.70;99.90
17728;DHT22;8984;49.268;12.302;2024-02-14T04:40:01;3.70;99.90
17728;DHT22;8984;49.268;12.302;2024-02-14T04:42:30;3.70;99.90
17728;DHT22;8984;49.268;12.302;2024-02-14T04:45:07;3.70;99.90
17728;DHT22;8984;49.268;12.302;2024-02-14T04:47:40;3.80;99.90
17728;DHT22;8984;49.268;12.302;2024-02-14T04:50:21;3.70;99.90
17728;DHT22;8984;49.268;12.302;2024-02-14T04:53:01;3.70;99.90
17728;DHT22;8984;49.268;12.302;2024-02-14T04:55:36;3.80;99.90
17728;DHT22;8984;49.268;12.302;2024-02-14T04:58:08;3.60;99.90
17728;DHT22;8984;49.268;12.302;2024-02-14T05:01:04;3.70;99.90
17728;DHT22;8984;49.268;12.302;2024-02-14T05:03:38;3.70;99.90
17728;DHT22;8984;49.268;12.302;2024-02-14T05:06:08;3.70;99.90
17728;DHT22;8984;49.268;12.302;2024-02-14T05:08:36;3.70;99.90
17728;DHT22;8984;49.268;12.302;2024-02-14T05:11:03;3.70;99.90
17728;DHT22;8984;49.268;12.302;2024-02-14T05:13:33;3.70;99.90
17728;DHT22;8984;49.268;12.302;2024-02-14T05:16:09;3.70;99.90
17728;DHT22;8984;49.268;12.302;2024-02-14T05:18:45;3.70;99.90
17728;DHT22;8984;49.268;12.302;2024-02-14T05:21:21;3.70;99.90
17728;DHT22;8984;49.268;12.302;2024-02-14T05:23:50;3.70;99.90
17728;DHT22;8984;49.268;12.302;2024-02-14T05:26:18;3.70;99.90
17728;DHT22;8984;49.268;12.302;2024-02-14T05:28:56;3.70;99.90
17728;DHT22;8984;49.268;12.302;2024-02-14T05:31:52;3.70;99.90
17728;DHT22;8984;49.268;12.302;2024-02-14T05:34:20;3.70;99.90
17728;DHT22;8984;49.268;12.302;2024-02-14T05:36:47;3.70;99.90
17728;DHT22;8984;49.268;12.302;2024-02-14T05:39:14;3.60;99.90
17728;DHT22;8984;49.268;12.302;2024-02-14T05:41:41;3.60;99.90
17728;DHT22;8984;49.268;12.302;2024-02-14T05:44:08;3.60;99.90
17728;DHT22;8984;49.268;12.302;2024-02-14T05:46:35;3.60;99.90
17728;DHT22;8984;49.268;12.302;2024-02-14T05:49:03;3.60;99.90
17728;DHT22;8984;49.268;12.302;2024-02-14T05:51:30;3.70;99.90
17728;DHT22;8984;49.268;12.302;2024-02-14T05:53:57;3.70;99.90
17728;DHT22;8984;49.268;12.302;2024-02-14T05:56:24;3.70;99.90
17728;DHT22;8984;49.268;12.302;2024-02-14T05:58:51;3.70;99.90
17728;DHT22;8984;49.268;12.302;2024-02-14T06:01:18;3.70;99.90
17728;DHT22;8984;49.268;12.302;2024-02-14T06:03:45;3.70;99.90
17728;DHT22;8984;49.268;12.302;2024-02-14T06:06:13;3.70;99.90
17728;DHT22;8984;49.268;12.302;2024-02-14T06:08:40;3.60;99.90
17728;DHT22;8984;49.268;12.302;2024-02-14T06:11:06;3.60;99.90
17728;DHT22;8984;49.268;12.302;2024-02-14T06:13:33;3.60;99.90
17728;DHT22;8984;49.268;12.302;2024-02-14T06:16:01;3.50;99.90
17728;DHT22;8984;49.268;12.302;2024-02-14T06:18:28;3.40;99.90
17728;DHT22;8984;49.268;12.302;2024-02-14T06:20:54;3.20;99.90
17728;DHT22;8984;49.268;12.302;2024-02-14T06:23:23;3.40;99.90
17728;DHT22;8984;49.268;12.302;2024-02-14T06:25:49;3.30;99.90
17728;DHT22;8984;49.268;12.302;2024-02-14T06:28:16;3.40;99.90
17728;DHT22;8984;49.268;12.302;2024-02-14T06:30:43;3.60;99.90
17728;DHT22;8984;49.268;12.302;2024-02-14T06:33:10;3.70;99.90
17728;DHT22;8984;49.268;12.302;2024-02-14T06:35:36;3.80;99.90
17728;DHT22;8984;49.268;12.302;2024-02-14T06:38:03;3.90;99.90
17728;DHT22;8984;49.268;12.302;2024-02-14T06:40:32;3.80;99.90
17728;DHT22;8984;49.268;12.302;2024-02-14T06:42:59;3.90;99.90
17728;DHT22;8984;49.268;12.302;2024-02-14T06:45:26;3.90;99.90
17728;DHT22;8984;49.268;12.302;2024-02-14T06:47:54;3.90;99.90
17728;DHT22;8984;49.268;12.302;2024-02-14T06:50:20;4.00;99.90
17728;DHT22;8984;49.268;12.302;2024-02-14T06:52:47;3.90;99.90
17728;DHT22;8984;49.268;12.302;2024-02-14T06:55:14;3.90;99.90
17728;DHT22;8984;49.268;12.302;2024-02-14T06:57:42;3.90;99.90
17728;DHT22;8984;49.268;12.302;2024-02-14T07:00:09;4.00;99.90
17728;DHT22;8984;49.268;12.302;2024-02-14T07:02:36;4.00;99.90
17728;DHT22;8984;49.268;12.302;2024-02-14T07:05:04;4.10;99.90
17728;DHT22;8984;49.268;12.302;2024-02-14T07:07:32;4.10;99.90
17728;DHT22;8984;49.268;12.302;2024-02-14T07:09:59;4.10;99.90
17728;DHT22;8984;49.268;12.302;2024-02-14T07:12:26;4.20;99.90
17728;DHT22;8984;49.268;12.302;2024-02-14T07:14:57;4.20;99.90
17728;DHT22;8984;49.268;12.302;2024-02-14T07:17:23;4.20;99.90
17728;DHT22;8984;49.268;12.302;2024-02-14T07:19:50;4.20;99.90
17728;DHT22;8984;49.268;12.302;2024-02-14T07:22:17;4.10;99.90
17728;DHT22;8984;49.268;12.302;2024-02-14T07:24:44;4.10;99.90
17728;DHT22;8984;49.268;12.302;2024-02-14T07:27:12;4.40;99.90
17728;DHT22;8984;49.268;12.302;2024-02-14T07:29:38;4.20;99.90
17728;DHT22;8984;49.268;12.302;2024-02-14T07:32:07;4.30;99.90
17728;DHT22;8984;49.268;12.302;2024-02-14T07:34:34;4.40;99.90
17728;DHT22;8984;49.268;12.302;2024-02-14T07:37:00;4.50;99.90
17728;DHT22;8984;49.268;12.302;2024-02-14T07:39:27;4.50;99.90
17728;DHT22;8984;49.268;12.302;2024-02-14T07:41:54;4.60;99.90
17728;DHT22;8984;49.268;12.302;2024-02-14T07:44:22;4.70;99.90
17728;DHT22;8984;49.268;12.302;2024-02-14T07:46:49;4.60;99.90
17728;DHT22;8984;49.268;12.302;2024-02-14T07:49:17;4.70;99.90
17728;DHT22;8984;49.268;12.302;2024-02-14T07:51:44;4.70;99.90
17728;DHT22;8984;49.268;12.302;2024-02-14T07:54:11;4.80;99.90
17728;DHT22;8984;49.268;12.302;2024-02-14T07:56:38;4.80;99.90
17728;DHT22;8984;49.268;12.302;2024-02-14T07:59:05;5.00;99.90
17728;DHT22;8984;49.268;12.302;2024-02-14T08:01:32;5.00;99.90
17728;DHT22;8984;49.268;12.302;2024-02-14T08:03:59;5.00;99.90
17728;DHT22;8984;49.268;12.302;2024-02-14T08:06:27;5.00;99.90
17728;DHT22;8984;49.268;12.302;2024-02-14T08:08:54;5.00;99.90
17728;DHT22;8984;49.268;12.302;2024-02-14T08:11:24;5.00;99.90
17728;DHT22;8984;49.268;12.302;2024-02-14T08:13:51;5.00;99.90
17728;DHT22;8984;49.268;12.302;2024-02-14T08:16:18;5.10;99.90
17728;DHT22;8984;49.268;12.302;2024-02-14T08:18:44;5.10;99.90
17728;DHT22;8984;49.268;12.302;2024-02-14T08:21:11;5.20;99.90
17728;DHT22;8984;49.268;12.302;2024-02-14T08:23:39;5.30;99.90
17728;DHT22;8984;49.268;12.302;2024-02-14T08:26:07;5.40;99.90
17728;DHT22;8984;49.268;12.302;2024-02-14T08:28:36;5.30;99.90
17728;DHT22;8984;49.268;12.302;2024-02-14T08:31:03;5.40;99.90
17728;DHT22;8984;49.268;12.302;2024-02-14T08:33:29;5.50;99.90
17728;DHT22;8984;49.268;12.302;2024-02-14T08:35:56;5.60;99.90
17728;DHT22;8984;49.268;12.302;2024-02-14T08:38:23;5.70;99.90
17728;DHT22;8984;49.268;12.302;2024-02-14T08:40:52;5.80;99.90
17728;DHT22;8984;49.268;12.302;2024-02-14T08:43:18;5.80;99.90
17728;DHT22;8984;49.268;12.302;2024-02-14T08:45:45;5.80;99.90
17728;DHT22;8984;49.268;12.302;2024-02-14T08:48:12;5.90;99.90
17728;DHT22;8984;49.268;12.302;2024-02-14T08:50:39;6.00;99.90
17728;DHT22;8984;49.268;12.302;2024-02-14T08:53:07;6.00;99.90
17728;DHT22;8984;49.268;12.302;2024-02-14T08:55:34;6.10;99.90
17728;DHT22;8984;49.268;12.302;2024-02-14T08:58:03;6.20;99.90
17728;DHT22;8984;49.268;12.302;2024-02-14T09:00:30;6.40;99.90
17728;DHT22;8984;49.268;12.302;2024-02-14T09:03:00;6.50;99.90
17728;DHT22;8984;49.268;12.302;2024-02-14T09:05:27;6.70;99.90
17728;DHT22;8984;49.268;12.302;2024-02-14T09:07:54;6.80;99.90
17728;DHT22;8984;49.268;12.302;2024-02-14T09:10:21;6.90;99.90
17728;DHT22;8984;49.268;12.302;2024-02-14T09:12:48;7.10;99.90
17728;DHT22;8984;49.268;12.302;2024-02-14T09:15:16;7.10;99.90
17728;DHT22;8984;49.268;12.302;2024-02-14T09:17:44;7.20;99.90
17728;DHT22;8984;49.268;12.302;2024-02-14T09:20:12;7.20;99.90
17728;DHT22;8984;49.268;12.302;2024-02-14T09:22:39;7.20;99.90
17728;DHT22;8984;49.268;12.302;2024-02-14T09:25:07;7.20;99.90
17728;DHT22;8984;49.268;12.302;2024-02-14T09:27:35;7.20;99.90
17728;DHT22;8984;49.268;12.302;2024-02-14T09:30:02;7.30;99.90
17728;DHT22;8984;49.268;12.302;2024-02-14T09:32:31;7.20;99.90
17728;DHT22;8984;49.268;12.302;2024-02-14T09:34:59;7.10;99.90
17728;DHT22;8984;49.268;12.302;2024-02-14T09:37:25;7.10;99.90
17728;DHT22;8984;49.268;12.302;2024-02-14T09:39:55;7.20;99.90
17728;DHT22;8984;49.268;12.302;2024-02-14T09:42:28;7.30;99.90
17728;DHT22;8984;49.268;12.302;2024-02-14T09:44:59;7.30;99.90
17728;DHT22;8984;49.268;12.302;2024-02-14T09:47:27;7.40;99.90
17728;DHT22;8984;49.268;12.302;2024-02-14T09:49:59;7.50;99.90
17728;DHT22;8984;49.268;12.302;2024-02-14T09:52:28;7.60;99.90
17728;DHT22;8984;49.268;12.302;2024-02-14T09:54:56;7.70;99.90
17728;DHT22;8984;49.268;12.302;2024-02-14T09:57:23;7.90;99.90
17728;DHT22;8984;49.268;12.302;2024-02-14T09:59:52;7.90;99.90
17728;DHT22;8984;49.268;12.302;2024-02-14T10:02:20;8.00;99.90
17728;DHT22;8984;49.268;12.302;2024-02-14T10:04:47;8.10;99.90
17728;DHT22;8984;49.268;12.302;2024-02-14T10:07:15;8.20;99.90
17728;DHT22;8984;49.268;12.302;2024-02-14T10:09:43;8.20;99.90
17728;DHT22;8984;49.268;12.302;2024-02-14T10:12:09;8.20;99.90
17728;DHT22;8984;49.268;12.302;2024-02-14T10:14:36;8.20;99.90
17728;DHT22;8984;49.268;12.302;2024-02-14T10:17:04;8.10;99.90
17728;DHT22;8984;49.268;12.302;2024-02-14T10:19:31;8.10;99.90
17728;DHT22;8984;49.268;12.302;2024-02-14T10:21:58;8.20;99.90
17728;DHT22;8984;49.268;12.302;2024-02-14T10:24:27;8.20;99.90
17728;DHT22;8984;49.268;12.302;2024-02-14T10:26:54;8.00;99.90
17728;DHT22;8984;49.268;12.302;2024-02-14T10:29:23;8.00;99.90
17728;DHT22;8984;49.268;12.302;2024-02-14T10:31:49;8.10;99.90
17728;DHT22;8984;49.268;12.302;2024-02-14T10:34:18;8.30;99.90
17728;DHT22;8984;49.268;12.302;2024-02-14T10:36:45;8.30;99.90
17728;DHT22;8984;49.268;12.302;2024-02-14T10:39:13;8.40;99.90
17728;DHT22;8984;49.268;12.302;2024-02-14T10:41:43;8.60;99.90
17728;DHT22;8984;49.268;12.302;2024-02-14T10:44:10;8.70;99.90
17728;DHT22;8984;49.268;12.302;2024-02-14T10:46:40;8.70;99.90
17728;DHT22;8984;49.268;12.302;2024-02-14T10:49:10;8.80;99.90
17728;DHT22;8984;49.268;12.302;2024-02-14T10:51:38;8.90;99.90
17728;DHT22;8984;49.268;12.302;2024-02-14T10:54:10;9.10;99.90
17728;DHT22;8984;49.268;12.302;2024-02-14T10:56:39;9.10;99.90
17728;DHT22;8984;49.268;12.302;2024-02-14T10:59:10;9.20;99.90
17728;DHT22;8984;49.268;12.302;2024-02-14T11:01:39;9.20;99.90
17728;DHT22;8984;49.268;12.302;2024-02-14T11:04:07;9.00;99.90
17728;DHT22;8984;49.268;12.302;2024-02-14T11:06:44;9.20;99.90
17728;DHT22;8984;49.268;12.302;2024-02-14T11:09:12;9.50;99.90
17728;DHT22;8984;49.268;12.302;2024-02-14T11:11:41;9.30;99.90
17728;DHT22;8984;49.268;12.302;2024-02-14T11:14:12;9.30;99.90
17728;DHT22;8984;49.268;12.302;2024-02-14T11:16:41;9.20;99.90
17728;DHT22;8984;49.268;12.302;2024-02-14T11:19:10;9.00;99.90
17728;DHT22;8984;49.268;12.302;2024-02-14T11:21:39;9.20;99.90
17728;DHT22;8984;49.268;12.302;2024-02-14T11:24:09;9.20;99.90
17728;DHT22;8984;49.268;12.302;2024-02-14T11:26:40;9.10;99.90
17728;DHT22;8984;49.268;12.302;2024-02-14T11:29:15;9.20;99.90
17728;DHT22;8984;49.268;12.302;2024-02-14T11:31:43;9.20;99.90
17728;DHT22;8984;49.268;12.302;2024-02-14T11:34:11;9.40;99.90
17728;DHT22;8984;49.268;12.302;2024-02-14T11:36:41;9.30;99.90
17728;DHT22;8984;49.268;12.302;2024-02-14T11:39:08;9.30;99.90
17728;DHT22;8984;49.268;12.302;2024-02-14T11:41:35;9.40;99.90
17728;DHT22;8984;49.268;12.302;2024-02-14T11:44:04;9.40;99.90
17728;DHT22;8984;49.268;12.302;2024-02-14T11:46:33;9.50;99.90
17728;DHT22;8984;49.268;12.302;2024-02-14T11:49:02;9.50;99.90
17728;DHT22;8984;49.268;12.302;2024-02-14T11:51:29;9.50;99.90
17728;DHT22;8984;49.268;12.302;2024-02-14T11:53:57;9.70;99.90
17728;DHT22;8984;49.268;12.302;2024-02-14T11:56:30;9.90;99.90
17728;DHT22;8984;49.268;12.302;2024-02-14T11:58:59;9.80;99.90
17728;DHT22;8984;49.268;12.302;2024-02-14T12:01:28;10.00;99.90
17728;DHT22;8984;49.268;12.302;2024-02-14T12:03:57;10.00;99.90
17728;DHT22;8984;49.268;12.302;2024-02-14T12:06:26;10.10;99.90
17728;DHT22;8984;49.268;12.302;2024-02-14T12:08:53;10.20;99.90
17728;DHT22;8984;49.268;12.302;2024-02-14T12:11:21;10.10;99.90
17728;DHT22;8984;49.268;12.302;2024-02-14T12:13:49;10.20;99.90
17728;DHT22;8984;49.268;12.302;2024-02-14T12:16:19;10.10;99.90
17728;DHT22;8984;49.268;12.302;2024-02-14T12:18:46;9.90;99.90
17728;DHT22;8984;49.268;12.302;2024-02-14T12:21:14;10.00;99.90
17728;DHT22;8984;49.268;12.302;2024-02-14T12:23:42;10.00;99.90
17728;DHT22;8984;49.268;12.302;2024-02-14T12:26:09;10.00;99.90
17728;DHT22;8984;49.268;12.302;2024-02-14T12:28:40;10.20;99.90
17728;DHT22;8984;49.268;12.302;2024-02-14T12:31:08;10.40;99.90
17728;DHT22;8984;49.268;12.302;2024-02-14T12:33:34;10.30;99.90
17728;DHT22;8984;49.268;12.302;2024-02-14T12:36:01;10.40;99.90
17728;DHT22;8984;49.268;12.302;2024-02-14T12:38:30;10.40;99.90
17728;DHT22;8984;49.268;12.302;2024-02-14T12:40:58;10.50;99.90
17728;DHT22;8984;49.268;12.302;2024-02-14T12:43:27;10.40;99.90
17728;DHT22;8984;49.268;12.302;2024-02-14T12:45:53;10.30;99.90
17728;DHT22;8984;49.268;12.302;2024-02-14T12:48:23;10.40;99.90
17728;DHT22;8984;49.268;12.302;2024-02-14T12:50:52;10.50;99.90
17728;DHT22;8984;49.268;12.302;2024-02-14T12:53:19;10.50;99.90
17728;DHT22;8984;49.268;12.302;2024-02-14T12:55:47;10.60;99.90
17728;DHT22;8984;49.268;12.302;2024-02-14T12:58:15;10.60;99.90
17728;DHT22;8984;49.268;12.302;2024-02-14T13:00:42;10.80;99.90
17728;DHT22;8984;49.268;12.302;2024-02-14T13:03:10;10.70;99.90
17728;DHT22;8984;49.268;12.302;2024-02-14T13:05:37;10.70;99.90
17728;DHT22;8984;49.268;12.302;2024-02-14T13:08:05;10.90;99.90
17728;DHT22;8984;49.268;12.302;2024-02-14T13:10:32;11.00;99.90
17728;DHT22;8984;49.268;12.302;2024-02-14T13:13:00;11.10;99.90
17728;DHT22;8984;49.268;12.302;2024-02-14T13:15:27;11.20;99.90
17728;DHT22;8984;49.268;12.302;2024-02-14T13:17:54;11.20;99.90
17728;DHT22;8984;49.268;12.302;2024-02-14T13:20:24;11.30;99.90
17728;DHT22;8984;49.268;12.302;2024-02-14T13:22:51;11.40;99.90
17728;DHT22;8984;49.268;12.302;2024-02-14T13:25:18;11.40;99.90
17728;DHT22;8984;49.268;12.302;2024-02-14T13:27:45;11.60;99.90
17728;DHT22;8984;49.268;12.302;2024-02-14T13:30:13;11.50;99.90
17728;DHT22;8984;49.268;12.302;2024-02-14T13:32:40;11.50;99.90
17728;DHT22;8984;49.268;12.302;2024-02-14T13:35:08;11.40;99.90
17728;DHT22;8984;49.268;12.302;2024-02-14T13:37:36;11.50;99.90
17728;DHT22;8984;49.268;12.302;2024-02-14T13:40:04;11.30;99.90
17728;DHT22;8984;49.268;12.302;2024-02-14T13:42:35;11.40;99.90
17728;DHT22;8984;49.268;12.302;2024-02-14T13:45:03;11.50;99.90
17728;DHT22;8984;49.268;12.302;2024-02-14T13:47:32;11.50;99.90
17728;DHT22;8984;49.268;12.302;2024-02-14T13:49:59;11.40;99.90
17728;DHT22;8984;49.268;12.302;2024-02-14T13:52:26;11.50;99.90
17728;DHT22;8984;49.268;12.302;2024-02-14T13:54:52;11.40;99.90
17728;DHT22;8984;49.268;12.302;2024-02-14T13:57:19;11.50;99.90
17728;DHT22;8984;49.268;12.302;2024-02-14T13:59:46;11.10;99.90
17728;DHT22;8984;49.268;12.302;2024-02-14T14:02:13;11.20;99.90
17728;DHT22;8984;49.268;12.302;2024-02-14T14:04:41;11.50;99.90
17728;DHT22;8984;49.268;12.302;2024-02-14T14:07:08;11.40;99.90
17728;DHT22;8984;49.268;12.302;2024-02-14T14:09:35;11.30;99.90
17728;DHT22;8984;49.268;12.302;2024-02-14T14:12:03;11.30;99.90
17728;DHT22;8984;49.268;12.302;2024-02-14T14:14:29;11.50;99.90
17728;DHT22;8984;49.268;12.302;2024-02-14T14:16:56;11.50;99.90
17728;DHT22;8984;49.268;12.302;2024-02-14T14:19:23;11.50;99.90
17728;DHT22;8984;49.268;12.302;2024-02-14T14:21:51;11.50;99.90
17728;DHT22;8984;49.268;12.302;2024-02-14T14:24:18;11.50;99.90
17728;DHT22;8984;49.268;12.302;2024-02-14T14:26:45;11.60;99.90
17728;DHT22;8984;49.268;12.302;2024-02-14T14:29:12;11.50;99.90
17728;DHT22;8984;49.268;12.302;2024-02-14T14:31:39;11.20;99.90
17728;DHT22;8984;49.268;12.302;2024-02-14T14:34:07;11.20;99.90
17728;DHT22;8984;49.268;12.302;2024-02-14T14:36:33;11.40;99.90
17728;DHT22;8984;49.268;12.302;2024-02-14T14:39:05;11.20;99.90
17728;DHT22;8984;49.268;12.302;2024-02-14T14:41:32;11.20;99.90
17728;DHT22;8984;49.268;12.302;2024-02-14T14:43:59;11.20;99.90
17728;DHT22;8984;49.268;12.302;2024-02-14T14:46:26;11.30;99.90
17728;DHT22;8984;49.268;12.302;2024-02-14T14:48:53;11.20;99.90
17728;DHT22;8984;49.268;12.302;2024-02-14T14:51:19;11.20;99.90
17728;DHT22;8984;49.268;12.302;2024-02-14T14:53:46;11.20;99.90
17728;DHT22;8984;49.268;12.302;2024-02-14T14:56:14;11.10;99.90
17728;DHT22;8984;49.268;12.302;2024-02-14T14:58:41;11.20;99.90
17728;DHT22;8984;49.268;12.302;2024-02-14T15:01:08;11.10;99.90
17728;DHT22;8984;49.268;12.302;2024-02-14T15:03:35;11.10;99.90
17728;DHT22;8984;49.268;12.302;2024-02-14T15:06:03;11.00;99.90
17728;DHT22;8984;49.268;12.302;2024-02-14T15:08:30;10.90;99.90
17728;DHT22;8984;49.268;12.302;2024-02-14T15:10:57;10.80;99.90
17728;DHT22;8984;49.268;12.302;2024-02-14T15:13:25;10.90;99.90
17728;DHT22;8984;49.268;12.302;2024-02-14T15:15:52;10.80;99.90
17728;DHT22;8984;49.268;12.302;2024-02-14T15:18:19;10.80;99.90
17728;DHT22;8984;49.268;12.302;2024-02-14T15:20:46;10.90;99.90
17728;DHT22;8984;49.268;12.302;2024-02-14T15:23:13;10.80;99.90
17728;DHT22;8984;49.268;12.302;2024-02-14T15:25:40;10.80;99.90
17728;DHT22;8984;49.268;12.302;2024-02-14T15:28:08;10.90;99.90
17728;DHT22;8984;49.268;12.302;2024-02-14T15:30:39;10.90;99.90
17728;DHT22;8984;49.268;12.302;2024-02-14T15:33:24;10.90;99.90
17728;DHT22;8984;49.268;12.302;2024-02-14T15:35:52;10.80;99.90
17728;DHT22;8984;49.268;12.302;2024-02-14T15:38:20;10.90;99.90
17728;DHT22;8984;49.268;12.302;2024-02-14T15:40:47;10.90;99.90
17728;DHT22;8984;49.268;12.302;2024-02-14T15:43:18;10.90;99.90
17728;DHT22;8984;49.268;12.302;2024-02-14T15:45:48;10.80;99.90
17728;DHT22;8984;49.268;12.302;2024-02-14T15:48:15;10.90;99.90
17728;DHT22;8984;49.268;12.302;2024-02-14T15:50:42;10.90;99.90
17728;DHT22;8984;49.268;12.302;2024-02-14T15:53:11;10.70;99.90
17728;DHT22;8984;49.268;12.302;2024-02-14T15:55:38;10.70;99.90
17728;DHT22;8984;49.268;12.302;2024-02-14T15:58:06;10.70;99.90
17728;DHT22;8984;49.268;12.302;2024-02-14T16:00:34;10.60;99.90
17728;DHT22;8984;49.268;12.302;2024-02-14T16:03:03;10.70;99.90
17728;DHT22;8984;49.268;12.302;2024-02-14T16:05:30;10.70;99.90